createdAt,value
2022-12-04T00:02:03.228Z,95979.28
2022-12-04T00:04:29.613Z,95976.59
2022-12-04T00:06:58.932Z,95976.69
2022-12-04T00:09:25.853Z,95976.13
2022-12-04T00:11:52.193Z,95972.75
2022-12-04T00:14:18.725Z,95973.03
2022-12-04T00:16:45.225Z,95981.53
2022-12-04T00:19:11.690Z,95979.56
2022-12-04T00:21:38.409Z,95973.97
2022-12-04T00:24:05.325Z,95972.03
2022-12-04T00:26:31.679Z,95967.00
2022-12-04T00:28:58.640Z,95968.56
2022-12-04T00:31:27.195Z,95968.03
2022-12-04T00:33:54.151Z,95979.25
2022-12-04T00:36:22.764Z,95968.78
2022-12-04T00:38:49.810Z,95963.50
2022-12-04T00:41:18.568Z,95963.69
2022-12-04T00:43:45.842Z,95966.03
2022-12-04T00:46:12.987Z,95966.59
2022-12-04T00:48:39.392Z,95974.38
2022-12-04T00:51:09.762Z,95976.97
2022-12-04T00:53:36.382Z,95973.53
2022-12-04T00:56:07.839Z,95988.59
2022-12-04T00:58:34.463Z,95982.47
2022-12-04T01:01:07.225Z,95978.06
2022-12-04T01:03:34.608Z,95971.75
2022-12-04T01:06:02.195Z,95981.81
2022-12-04T01:08:28.690Z,95976.84
2022-12-04T01:10:55.112Z,95967.69
2022-12-04T01:13:23.255Z,95980.91
2022-12-04T01:15:49.762Z,95984.84
2022-12-04T01:18:16.624Z,95972.19
2022-12-04T01:20:51.584Z,95977.91
2022-12-04T01:23:19.306Z,95968.78
2022-12-04T01:25:53.690Z,95976.56
2022-12-04T01:28:20.538Z,95970.75
2022-12-04T01:30:57.929Z,95964.41
2022-12-04T01:33:24.268Z,95969.91
2022-12-04T01:35:59.128Z,95966.59
2022-12-04T01:38:26.451Z,95977.13
2022-12-04T01:40:53.713Z,95970.47
2022-12-04T01:43:20.626Z,95974.75
2022-12-04T01:45:50.510Z,95967.59
2022-12-04T01:48:44.083Z,95966.59
2022-12-04T01:51:20.394Z,95962.75
2022-12-04T01:53:54.328Z,95960.16
2022-12-04T01:56:25.796Z,95969.66
2022-12-04T01:58:56.826Z,95954.00
2022-12-04T02:01:23.499Z,95951.41
2022-12-04T02:03:50.126Z,95948.72
2022-12-04T02:06:16.473Z,95971.13
2022-12-04T02:08:42.946Z,95959.72
2022-12-04T02:11:34.339Z,95959.88
2022-12-04T02:14:25.304Z,95955.84
2022-12-04T02:17:25.952Z,95953.97
2022-12-04T02:20:15.980Z,95946.34
2022-12-04T02:22:57.136Z,95945.22
2022-12-04T02:25:47.989Z,95945.22
2022-12-04T02:28:26.821Z,95945.63
2022-12-04T02:30:57.875Z,95948.75
2022-12-04T02:33:30.908Z,95942.50
2022-12-04T02:36:11.452Z,95944.94
2022-12-04T02:38:44.342Z,95945.25
2022-12-04T02:41:15.771Z,95945.88
2022-12-04T02:43:57.390Z,95945.38
2022-12-04T02:46:37.037Z,95950.69
2022-12-04T02:49:07.782Z,95951.78
2022-12-04T02:51:37.527Z,95950.84
2022-12-04T02:54:21.765Z,95941.72
2022-12-04T02:56:51.633Z,95960.09
2022-12-04T02:59:24.613Z,95956.53
2022-12-04T03:01:55.691Z,95953.72
2022-12-04T03:04:25.505Z,95956.63
2022-12-04T03:07:04.766Z,95955.97
2022-12-04T03:09:39.079Z,95951.78
2022-12-04T03:12:44.547Z,95947.13
2022-12-04T03:15:27.619Z,95964.31
2022-12-04T03:18:07.795Z,95957.72
2022-12-04T03:20:36.234Z,95954.56
2022-12-04T03:23:09.705Z,95957.03
2022-12-04T03:25:56.398Z,95944.53
2022-12-04T03:28:33.378Z,95952.78
2022-12-04T03:31:06.893Z,95952.88
2022-12-04T03:33:43.306Z,95944.06
2022-12-04T03:36:25.463Z,95942.25
2022-12-04T03:39:11.893Z,95930.63
2022-12-04T03:42:02.416Z,95933.06
2022-12-04T03:44:38.725Z,95940.75
2022-12-04T03:47:11.997Z,95943.63
2022-12-04T03:49:47.716Z,95946.31
2022-12-04T03:52:24.665Z,95947.44
2022-12-04T03:54:59.526Z,95948.38
2022-12-04T03:57:32.859Z,95939.06
2022-12-04T04:00:10.527Z,95948.38
2022-12-04T04:02:43.637Z,95945.72
2022-12-04T04:05:12.431Z,95938.44
2022-12-04T04:07:46.017Z,95940.09
2022-12-04T04:10:17.570Z,95937.41
2022-12-04T04:13:15.897Z,95935.84
2022-12-04T04:16:08.055Z,95934.06
2022-12-04T04:18:53.601Z,95943.88
2022-12-04T04:21:43.816Z,95941.47
2022-12-04T04:24:20.758Z,95941.47
2022-12-04T04:26:49.447Z,95944.91
2022-12-04T04:29:15.865Z,95927.13
2022-12-04T04:31:53.471Z,95919.06
2022-12-04T04:34:54.234Z,95919.78
2022-12-04T04:37:30.461Z,95928.06
2022-12-04T04:40:20.131Z,95924.03
2022-12-04T04:43:03.400Z,95927.56
2022-12-04T04:45:32.932Z,95936.41
2022-12-04T04:48:27.619Z,95936.94
2022-12-04T04:50:54.636Z,95931.47
2022-12-04T04:53:30.259Z,95926.25
2022-12-04T04:55:57.343Z,95930.56
2022-12-04T04:58:23.693Z,95939.56
2022-12-04T05:01:04.091Z,95937.72
2022-12-04T05:03:31.692Z,95931.28
2022-12-04T05:05:58.432Z,95921.53
2022-12-04T05:08:24.841Z,95930.66
2022-12-04T05:10:51.333Z,95936.88
2022-12-04T05:13:18.832Z,95942.88
2022-12-04T05:15:45.787Z,95926.69
2022-12-04T05:18:12.184Z,95930.09
2022-12-04T05:20:39.925Z,95930.56
2022-12-04T05:23:07.288Z,95919.69
2022-12-04T05:25:33.655Z,95924.03
2022-12-04T05:28:00.056Z,95928.81
2022-12-04T05:30:26.385Z,95937.22
2022-12-04T05:32:52.731Z,95937.22
2022-12-04T05:35:19.070Z,95928.16
2022-12-04T05:37:45.547Z,95933.69
2022-12-04T05:40:12.449Z,95926.34
2022-12-04T05:42:38.871Z,95926.13
2022-12-04T05:45:05.693Z,95925.19
2022-12-04T05:47:32.041Z,95928.16
2022-12-04T05:49:58.631Z,95935.28
2022-12-04T05:52:25.177Z,95938.38
2022-12-04T05:54:51.659Z,95933.81
2022-12-04T05:57:17.989Z,95949.28
2022-12-04T05:59:44.490Z,95951.78
2022-12-04T06:02:10.925Z,95956.97
2022-12-04T06:04:38.368Z,95951.56
2022-12-04T06:07:04.733Z,95948.88
2022-12-04T06:09:31.089Z,95940.75
2022-12-04T06:11:58.170Z,95942.19
2022-12-04T06:14:24.520Z,95947.66
2022-12-04T06:16:50.965Z,95950.84
2022-12-04T06:19:19.716Z,95949.81
2022-12-04T06:21:48.372Z,95958.56
2022-12-04T06:24:21.538Z,95957.34
2022-12-04T06:27:18.983Z,95954.38
2022-12-04T06:29:35.486Z,95950.34
2022-12-04T06:32:01.937Z,95956.91
2022-12-04T06:34:28.482Z,95962.09
2022-12-04T06:36:54.914Z,95948.56
2022-12-04T06:39:21.262Z,95958.44
2022-12-04T06:41:47.807Z,95963.59
2022-12-04T06:44:15.325Z,95961.16
2022-12-04T06:46:46.417Z,95958.50
2022-12-04T06:49:13.325Z,95966.09
2022-12-04T06:51:40.704Z,95962.16
2022-12-04T06:54:07.105Z,95952.44
2022-12-04T06:56:33.991Z,95964.97
2022-12-04T06:59:02.520Z,95973.41
2022-12-04T07:01:31.476Z,95975.06
2022-12-04T07:03:58.805Z,95983.78
2022-12-04T07:06:30.626Z,95994.31
2022-12-04T07:09:04.609Z,95986.19
2022-12-04T07:11:31.377Z,95993.25
2022-12-04T07:13:57.932Z,95989.34
2022-12-04T07:16:26.086Z,95991.78
2022-12-04T07:18:59.095Z,95992.66
2022-12-04T07:21:28.689Z,95991.41
2022-12-04T07:23:58.811Z,95995.38
2022-12-04T07:26:27.699Z,95982.31
2022-12-04T07:28:55.430Z,95976.31
2022-12-04T07:31:23.861Z,95981.81
2022-12-04T07:33:50.735Z,95982.63
2022-12-04T07:36:19.522Z,95980.25
2022-12-04T07:38:46.330Z,95986.63
2022-12-04T07:41:13.469Z,95980.25
2022-12-04T07:43:40.901Z,95978.06
2022-12-04T07:46:14.306Z,95980.59
2022-12-04T07:48:40.960Z,95980.94
2022-12-04T07:51:21.700Z,95982.53
2022-12-04T07:53:50.319Z,95991.34
2022-12-04T07:56:17.799Z,95988.78
2022-12-04T07:58:44.184Z,96000.06
2022-12-04T08:01:13.981Z,95996.31
2022-12-04T08:03:47.244Z,95991.56
2022-12-04T08:06:14.708Z,95989.19
2022-12-04T08:08:41.111Z,95988.84
2022-12-04T08:11:09.369Z,95983.19
2022-12-04T08:13:35.914Z,95989.78
2022-12-04T08:16:06.679Z,95987.38
2022-12-04T08:18:33.056Z,95987.00
2022-12-04T08:21:08.332Z,95982.00
2022-12-04T08:23:35.961Z,95979.09
2022-12-04T08:26:03.459Z,95980.34
2022-12-04T08:28:30.182Z,95975.44
2022-12-04T08:31:03.140Z,95985.06
2022-12-04T08:33:29.532Z,95990.06
2022-12-04T08:35:55.884Z,95998.22
2022-12-04T08:38:22.242Z,96000.38
2022-12-04T08:40:48.557Z,95999.22
2022-12-04T08:43:15.094Z,96006.56
2022-12-04T08:45:41.649Z,96004.63
2022-12-04T08:48:07.988Z,96009.09
2022-12-04T08:50:34.328Z,96006.09
2022-12-04T08:53:00.646Z,96000.16
2022-12-04T08:55:26.938Z,96002.94
2022-12-04T08:57:53.548Z,96010.63
2022-12-04T09:00:20.242Z,95999.41
2022-12-04T09:02:49.658Z,95995.50
2022-12-04T09:05:16.941Z,95995.09
2022-12-04T09:07:43.275Z,95989.91
2022-12-04T09:10:10.261Z,95998.44
2022-12-04T09:12:36.605Z,96000.44
2022-12-04T09:15:03.417Z,96003.66
2022-12-04T09:17:29.756Z,96000.97
2022-12-04T09:20:00.672Z,96005.28
2022-12-04T09:22:40.505Z,96017.13
2022-12-04T09:25:14.266Z,96027.25
2022-12-04T09:27:44.843Z,96026.03
2022-12-04T09:30:12.822Z,96024.72
2022-12-04T09:32:39.270Z,96031.38
2022-12-04T09:35:07.105Z,96037.75
2022-12-04T09:37:33.867Z,96042.56
2022-12-04T09:40:00.389Z,96032.28
2022-12-04T09:42:35.842Z,96029.56
2022-12-04T09:45:05.772Z,96021.38
2022-12-04T09:47:40.711Z,96018.28
2022-12-04T09:50:17.261Z,96014.34
2022-12-04T09:52:46.859Z,96013.00
2022-12-04T09:55:27.941Z,96017.88
2022-12-04T09:58:02.049Z,96017.56
2022-12-04T10:00:30.773Z,96017.25
2022-12-04T10:03:06.654Z,96009.47
2022-12-04T10:05:48.254Z,96017.13
2022-12-04T10:08:28.576Z,96017.00
2022-12-04T10:11:00.097Z,96006.25
2022-12-04T10:13:48.478Z,96012.38
2022-12-04T10:16:25.924Z,96010.16
2022-12-04T10:19:05.579Z,96019.06
2022-12-04T10:22:02.304Z,96017.41
2022-12-04T10:24:36.161Z,96010.88
2022-12-04T10:27:09.591Z,96001.25
2022-12-04T10:29:38.795Z,96006.88
2022-12-04T10:32:28.331Z,95985.28
2022-12-04T10:34:58.631Z,95987.34
2022-12-04T10:37:25.927Z,95978.34
2022-12-04T10:40:13.565Z,95973.09
2022-12-04T10:42:47.374Z,95959.19
2022-12-04T10:45:13.802Z,95953.78
2022-12-04T10:47:46.920Z,95949.47
2022-12-04T10:50:18.214Z,95947.13
2022-12-04T10:52:45.315Z,95941.41
2022-12-04T10:55:12.421Z,95925.75
2022-12-04T10:57:42.363Z,95916.16
2022-12-04T11:00:33.601Z,95904.81
2022-12-04T11:03:09.045Z,95896.50
2022-12-04T11:05:42.143Z,95904.16
2022-12-04T11:08:24.616Z,95940.25
2022-12-04T11:11:01.277Z,95971.75
2022-12-04T11:13:28.269Z,95968.28
2022-12-04T11:15:56.867Z,95961.38
2022-12-04T11:18:29.230Z,95972.91
2022-12-04T11:20:55.629Z,95960.13
2022-12-04T11:23:22.932Z,95966.53
2022-12-04T11:26:03.679Z,95952.41
2022-12-04T11:28:41.511Z,95942.06
2022-12-04T11:31:15.279Z,95945.25
2022-12-04T11:33:50.038Z,95933.75
2022-12-04T11:36:23.989Z,95939.31
2022-12-04T11:38:53.657Z,95933.63
2022-12-04T11:41:31.746Z,95933.63
2022-12-04T11:44:00.484Z,95933.44
2022-12-04T11:46:31.826Z,95928.00
2022-12-04T11:48:58.998Z,95924.44
2022-12-04T11:51:51.931Z,95919.66
2022-12-04T11:54:18.328Z,95924.03
2022-12-04T11:57:02.439Z,95920.47
2022-12-04T11:59:49.422Z,95933.72
2022-12-04T12:02:48.408Z,95916.97
2022-12-04T12:05:30.141Z,95917.66
2022-12-04T12:08:05.206Z,95914.16
2022-12-04T12:10:44.671Z,95909.66
2022-12-04T12:13:38.639Z,95912.47
2022-12-04T12:16:20.772Z,95904.59
2022-12-04T12:19:04.541Z,95908.13
2022-12-04T12:21:43.872Z,95906.59
2022-12-04T12:24:26.976Z,95906.03
2022-12-04T12:27:12.748Z,95905.84
2022-12-04T12:30:08.380Z,95908.97
2022-12-04T12:33:17.114Z,95917.69
2022-12-04T12:35:58.822Z,95919.88
2022-12-04T12:38:47.514Z,95910.81
2022-12-04T12:41:19.685Z,95907.75
2022-12-04T12:43:54.825Z,95904.31
2022-12-04T12:46:30.887Z,95909.53
2022-12-04T12:49:23.203Z,95913.31
2022-12-04T12:51:59.626Z,95918.88
2022-12-04T12:54:53.403Z,95922.66
2022-12-04T12:57:37.770Z,95923.63
2022-12-04T13:00:13.713Z,95917.47
2022-12-04T13:03:04.786Z,95920.75
2022-12-04T13:05:44.146Z,95917.34
2022-12-04T13:08:10.812Z,95905.88
2022-12-04T13:10:45.876Z,95907.78
2022-12-04T13:13:20.362Z,95899.88
2022-12-04T13:15:53.655Z,95896.25
2022-12-04T13:18:30.610Z,95903.09
2022-12-04T13:21:01.940Z,95901.19
2022-12-04T13:23:46.689Z,95903.69
2022-12-04T13:26:19.878Z,95901.44
2022-12-04T13:28:58.370Z,95900.97
2022-12-04T13:31:40.895Z,95892.22
2022-12-04T13:34:25.598Z,95898.22
2022-12-04T13:37:12.200Z,95895.53
2022-12-04T13:40:07.551Z,95889.75
2022-12-04T13:42:33.987Z,95895.03
2022-12-04T13:45:07.834Z,95893.16
2022-12-04T13:47:35.699Z,95881.34
2022-12-04T13:50:09.838Z,95887.16
2022-12-04T13:52:40.809Z,95882.53
2022-12-04T13:55:30.641Z,95879.72
2022-12-04T13:58:01.553Z,95870.50
2022-12-04T14:00:31.783Z,95879.72
2022-12-04T14:03:06.824Z,95874.72
2022-12-04T14:05:43.613Z,95881.94
2022-12-04T14:08:35.093Z,95889.84
2022-12-04T14:11:14.989Z,95884.41
2022-12-04T14:13:46.176Z,95889.16
2022-12-04T14:16:48.578Z,95885.81
2022-12-04T14:19:29.712Z,95890.19
2022-12-04T14:21:56.459Z,95894.69
2022-12-04T14:24:35.121Z,95898.59
2022-12-04T14:27:34.724Z,95900.22
2022-12-04T14:30:02.103Z,95895.75
2022-12-04T14:32:33.573Z,95897.41
2022-12-04T14:35:01.163Z,95897.63
2022-12-04T14:37:43.150Z,95892.44
2022-12-04T14:40:19.796Z,95897.28
2022-12-04T14:42:49.297Z,95898.47
2022-12-04T14:45:18.812Z,95890.69
2022-12-04T14:47:50.706Z,95905.00
2022-12-04T14:50:42.222Z,95915.03
2022-12-04T14:53:24.094Z,95918.00
2022-12-04T14:56:12.436Z,95918.47
2022-12-04T14:58:39.151Z,95914.59
2022-12-04T15:01:18.444Z,95921.75
2022-12-04T15:03:47.600Z,95919.38
2022-12-04T15:06:21.974Z,95914.16
2022-12-04T15:08:50.804Z,95910.09
2022-12-04T15:11:39.737Z,95916.81
2022-12-04T15:14:13.831Z,95915.41
2022-12-04T15:16:40.659Z,95908.28
2022-12-04T15:19:17.974Z,95898.28
2022-12-04T15:21:44.824Z,95913.97
2022-12-04T15:24:20.138Z,95911.63
2022-12-04T15:26:48.841Z,95910.41
2022-12-04T15:29:28.237Z,95895.06
2022-12-04T15:31:59.787Z,95895.06
2022-12-04T15:34:37.569Z,95895.63
2022-12-04T15:37:16.124Z,95886.91
2022-12-04T15:39:42.853Z,95878.50
2022-12-04T15:42:18.010Z,95889.88
2022-12-04T15:45:02.049Z,95893.38
2022-12-04T15:47:36.952Z,95893.28
2022-12-04T15:50:15.455Z,95896.75
2022-12-04T15:53:02.742Z,95906.50
2022-12-04T15:55:32.654Z,95907.31
2022-12-04T15:58:02.283Z,95916.91
2022-12-04T16:00:32.533Z,95908.53
2022-12-04T16:03:00.491Z,95920.06
2022-12-04T16:05:36.368Z,95912.63
2022-12-04T16:08:30.424Z,95911.81
2022-12-04T16:11:25.343Z,95917.03
2022-12-04T16:14:19.975Z,95912.63
2022-12-04T16:16:49.471Z,95923.84
2022-12-04T16:19:28.842Z,95922.91
2022-12-04T16:21:59.318Z,95929.75
2022-12-04T16:24:26.436Z,95924.81
2022-12-04T16:26:55.234Z,95920.31
2022-12-04T16:29:23.314Z,95918.91
2022-12-04T16:31:50.987Z,95927.16
2022-12-04T16:34:17.656Z,95934.09
2022-12-04T16:36:47.008Z,95932.00
2022-12-04T16:39:13.786Z,95939.44
2022-12-04T16:41:41.359Z,95943.25
2022-12-04T16:44:16.369Z,95939.34
2022-12-04T16:46:43.442Z,95928.34
2022-12-04T16:49:13.388Z,95924.09
2022-12-04T16:51:45.778Z,95918.91
2022-12-04T16:54:13.501Z,95927.16
2022-12-04T16:56:40.025Z,95914.53
2022-12-04T16:59:10.440Z,95918.66
2022-12-04T17:01:42.860Z,95913.47
2022-12-04T17:04:09.936Z,95906.38
2022-12-04T17:06:36.613Z,95920.06
2022-12-04T17:09:03.550Z,95931.53
2022-12-04T17:11:30.253Z,95939.91
2022-12-04T17:13:56.837Z,95953.84
2022-12-04T17:16:24.774Z,95968.47
2022-12-04T17:18:52.047Z,95981.94
2022-12-04T17:21:18.538Z,95991.34
2022-12-04T17:23:45.054Z,95987.88
2022-12-04T17:26:14.501Z,95996.72
2022-12-04T17:28:41.160Z,96004.88
2022-12-04T17:31:14.882Z,95986.75
2022-12-04T17:33:42.873Z,95976.19
2022-12-04T17:36:14.952Z,95989.66
2022-12-04T17:38:42.047Z,95991.81
2022-12-04T17:41:10.178Z,96000.66
2022-12-04T17:43:36.706Z,95994.31
2022-12-04T17:46:09.425Z,95982.03
2022-12-04T17:48:35.882Z,95988.53
2022-12-04T17:51:10.518Z,95998.00
2022-12-04T17:53:38.159Z,95987.59
2022-12-04T17:56:10.330Z,95998.94
2022-12-04T17:58:39.729Z,96000.59
2022-12-04T18:01:09.315Z,96012.63
2022-12-04T18:03:36.704Z,96014.41
2022-12-04T18:06:27.749Z,96023.59
2022-12-04T18:08:55.164Z,96025.91
2022-12-04T18:11:24.841Z,96030.78
2022-12-04T18:13:57.158Z,96034.66
2022-12-04T18:16:23.893Z,96033.78
2022-12-04T18:18:55.809Z,96038.09
2022-12-04T18:21:22.582Z,96042.63
2022-12-04T18:23:49.482Z,96057.88
2022-12-04T18:26:21.561Z,96053.31
2022-12-04T18:28:48.797Z,96046.16
2022-12-04T18:31:17.371Z,96059.59
2022-12-04T18:33:44.364Z,96060.38
2022-12-04T18:36:25.412Z,96059.53
2022-12-04T18:39:00.743Z,96065.19
2022-12-04T18:41:28.944Z,96077.00
2022-12-04T18:43:56.150Z,96058.06
2022-12-04T18:46:23.079Z,96071.38
2022-12-04T18:48:52.409Z,96072.75
2022-12-04T18:51:37.691Z,96076.69
2022-12-04T18:54:10.446Z,96077.09
2022-12-04T18:56:37.090Z,96072.44
2022-12-04T18:59:10.016Z,96073.13
2022-12-04T19:01:37.737Z,96076.16
2022-12-04T19:04:06.436Z,96069.63
2022-12-04T19:06:38.814Z,96077.75
2022-12-04T19:09:15.598Z,96078.78
2022-12-04T19:11:42.357Z,96073.31
2022-12-04T19:14:20.726Z,96084.88
2022-12-04T19:16:49.193Z,96082.66
2022-12-04T19:19:15.861Z,96083.06
2022-12-04T19:21:42.839Z,96093.03
2022-12-04T19:24:10.268Z,96097.69
2022-12-04T19:26:36.657Z,96107.88
2022-12-04T19:29:04.074Z,96098.34
2022-12-04T19:31:33.202Z,96095.44
2022-12-04T19:33:59.628Z,96111.28
2022-12-04T19:36:28.428Z,96104.25
2022-12-04T19:38:56.624Z,96100.91
2022-12-04T19:41:25.891Z,96094.66
2022-12-04T19:43:58.098Z,96099.16
2022-12-04T19:46:27.122Z,96097.19
2022-12-04T19:49:03.445Z,96090.88
2022-12-04T19:51:34.309Z,96080.97
2022-12-04T19:54:01.125Z,96082.28
2022-12-04T19:56:31.745Z,96081.84
2022-12-04T19:59:00.759Z,96076.59
2022-12-04T20:01:29.247Z,96072.19
2022-12-04T20:03:56.704Z,96076.88
2022-12-04T20:06:26.046Z,96073.06
2022-12-04T20:09:05.383Z,96068.66
2022-12-04T20:11:31.863Z,96066.16
2022-12-04T20:14:01.785Z,96075.69
2022-12-04T20:16:30.160Z,96078.81
2022-12-04T20:18:57.030Z,96087.91
2022-12-04T20:21:33.234Z,96086.25
2022-12-04T20:24:05.193Z,96082.47
2022-12-04T20:26:34.461Z,96094.03
2022-12-04T20:29:01.592Z,96092.16
2022-12-04T20:31:36.964Z,96091.22
2022-12-04T20:34:05.786Z,96104.13
2022-12-04T20:36:36.931Z,96104.81
2022-12-04T20:39:04.710Z,96089.25
2022-12-04T20:41:32.588Z,96076.53
2022-12-04T20:44:02.123Z,96076.50
2022-12-04T20:46:33.345Z,96091.03
2022-12-04T20:49:01.526Z,96105.31
2022-12-04T20:51:30.646Z,96117.06
2022-12-04T20:53:58.101Z,96125.56
2022-12-04T20:56:29.589Z,96127.66
2022-12-04T20:58:58.113Z,96122.88
2022-12-04T21:01:24.950Z,96107.78
2022-12-04T21:03:52.376Z,96090.75
2022-12-04T21:06:35.960Z,96101.66
2022-12-04T21:09:08.741Z,96121.56
2022-12-04T21:11:37.725Z,96127.16
2022-12-04T21:14:26.304Z,96129.09
2022-12-04T21:16:52.912Z,96148.41
2022-12-04T21:19:21.175Z,96159.72
2022-12-04T21:21:47.973Z,96146.81
2022-12-04T21:24:16.990Z,96158.53
2022-12-04T21:26:44.041Z,96150.88
2022-12-04T21:29:10.436Z,96157.25
2022-12-04T21:31:37.580Z,96142.56
2022-12-04T21:34:06.886Z,96139.59
2022-12-04T21:36:33.559Z,96138.84
2022-12-04T21:39:00.147Z,96151.06
2022-12-04T21:41:45.182Z,96158.78
2022-12-04T21:44:17.283Z,96153.16
2022-12-04T21:46:44.928Z,96157.31
2022-12-04T21:49:11.968Z,96164.38
2022-12-04T21:54:26.283Z,96181.56
2022-12-04T21:56:52.617Z,96166.75
2022-12-04T21:59:19.119Z,96178.34
2022-12-04T22:01:45.701Z,96190.06
2022-12-04T22:04:12.514Z,96185.41
2022-12-04T22:06:38.848Z,96195.34
2022-12-04T22:09:11.335Z,96199.81
2022-12-04T22:11:41.222Z,96202.13
2022-12-04T22:14:08.566Z,96221.59
2022-12-04T22:16:41.303Z,96213.41
2022-12-04T22:19:09.083Z,96214.66
2022-12-04T22:21:35.686Z,96219.00
2022-12-04T22:24:03.261Z,96224.06
2022-12-04T22:26:30.667Z,96217.59
2022-12-04T22:28:57.607Z,96218.06
2022-12-04T22:31:26.134Z,96241.47
2022-12-04T22:33:54.980Z,96233.53
2022-12-04T22:36:24.168Z,96243.00
2022-12-04T22:39:09.929Z,96251.53
2022-12-04T22:41:37.563Z,96262.56
2022-12-04T22:52:09.272Z,96253.56
2022-12-04T22:54:35.630Z,96254.34
2022-12-04T22:57:01.986Z,96244.22
2022-12-04T22:59:28.373Z,96260.41
2022-12-04T23:01:54.824Z,96273.25
2022-12-04T23:04:21.150Z,96281.72
2022-12-04T23:06:47.557Z,96286.22
2022-12-04T23:09:16.795Z,96285.81
2022-12-04T23:11:44.177Z,96290.94
2022-12-04T23:14:14.622Z,96297.06
2022-12-04T23:16:41.543Z,96294.03
2022-12-04T23:19:11.145Z,96304.41
2022-12-04T23:21:37.922Z,96288.13
2022-12-04T23:24:05.358Z,96280.47
2022-12-04T23:26:35.025Z,96276.31
2022-12-04T23:29:02.506Z,96281.00
2022-12-04T23:31:30.012Z,96273.63
2022-12-04T23:33:56.418Z,96274.34
2022-12-04T23:36:23.030Z,96287.09
2022-12-04T23:38:49.670Z,96284.06
2022-12-04T23:41:18.922Z,96286.56
2022-12-04T23:43:45.954Z,96292.16
2022-12-04T23:46:15.121Z,96298.78
2022-12-04T23:48:43.279Z,96302.75
2022-12-04T23:51:11.382Z,96308.13
2022-12-04T23:53:37.775Z,96315.44
2022-12-04T23:56:08.731Z,96323.50
2022-12-04T23:58:36.285Z,96318.75
